Time;durP1;ratioP1;P1;durP2;ratioP2;P2;SDS_P1;SDS_P2;PMS_P1;PMS_P2;Temp;Humidity;BMP_temperature;BMP_pressure;BME280_temperature;BME280_humidity;BME280_pressure;Samples;Min_cycle;Max_cycle;Signal;HPM_P1;HPM_P2
2022/12/30 00:00:48;;;;;;;72.60;5.43;;;8.30;92.80;;;;;;4906941;29;20205;-86
2022/12/30 00:03:14;;;;;;;72.77;5.57;;;8.30;92.70;;;;;;4906039;29;20225;-86
2022/12/30 00:05:39;;;;;;;77.73;5.73;;;8.20;92.80;;;;;;4905327;29;20264;-86
2022/12/30 00:08:45;;;;;;;69.73;5.80;;;8.10;94.30;;;;;;4905898;29;20241;-86
2022/12/30 00:10:51;;;;;;;69.38;4.82;;;8.10;93.50;;;;;;4907015;29;20547;-86
2022/12/30 00:33:08;;;;;;;72.07;5.00;;;8.10;96.50;;;;;;4898997;29;20591;-86
2022/12/30 00:35:35;;;;;;;71.82;5.40;;;8.10;98.20;;;;;;4904605;29;20169;-86
2022/12/30 00:38:04;;;;;;;72.45;5.00;;;8.10;98.40;;;;;;4906071;29;20232;-86
2022/12/30 00:40:30;;;;;;;78.55;5.90;;;8.00;98.00;;;;;;4906185;29;20193;-86
2022/12/30 00:43:10;;;;;;;77.90;5.87;;;8.00;99.60;;;;;;4904902;29;20166;-86
2022/12/30 00:45:41;;;;;;;78.13;5.45;;;8.10;99.10;;;;;;4906399;29;20150;-86
2022/12/30 00:56:21;;;;;;;72.82;5.25;;;8.00;97.60;;;;;;4906178;29;20217;-86
2022/12/30 00:58:46;;;;;;;78.90;6.80;;;8.00;98.60;;;;;;4906526;29;20190;-86
2022/12/30 01:01:13;;;;;;;74.30;5.10;;;7.90;97.40;;;;;;4906402;29;20606;-86
2022/12/30 01:03:38;;;;;;;70.97;5.63;;;7.70;99.90;;;;;;4904150;29;20291;-86
2022/12/30 01:06:09;;;;;;;76.50;5.23;;;7.80;99.90;;;;;;4905129;29;20182;-86
2022/12/30 01:08:34;;;;;;;71.63;5.20;;;7.60;99.90;;;;;;4904553;29;20193;-86
2022/12/30 01:11:07;;;;;;;71.90;4.80;;;7.60;99.90;;;;;;4905230;29;20194;-86
2022/12/30 01:13:33;;;;;;;71.20;5.38;;;7.50;99.90;;;;;;4905826;29;20158;-86
2022/12/30 01:16:10;;;;;;;70.00;5.93;;;7.40;99.90;;;;;;4906087;29;20698;-86
2022/12/30 01:18:36;;;;;;;67.20;4.95;;;7.40;99.90;;;;;;4905782;29;20648;-86
2022/12/30 01:21:02;;;;;;;71.00;6.03;;;7.40;99.90;;;;;;4905319;29;20273;-86
2022/12/30 01:23:28;;;;;;;70.50;5.85;;;7.30;99.90;;;;;;4905894;29;20656;-86
2022/12/30 01:25:53;;;;;;;76.10;5.57;;;7.30;99.90;;;;;;4904677;29;20241;-86
2022/12/30 01:28:19;;;;;;;70.23;6.90;;;7.30;99.90;;;;;;4905186;29;20273;-87
2022/12/30 01:30:45;;;;;;;70.70;6.20;;;7.30;99.90;;;;;;4905394;29;20196;-86
2022/12/30 01:33:10;;;;;;;70.57;6.00;;;7.40;99.90;;;;;;4904713;29;20201;-86
2022/12/30 01:35:36;;;;;;;69.17;5.53;;;7.30;99.90;;;;;;4904325;29;20429;-86
2022/12/30 01:38:02;;;;;;;69.17;6.10;;;7.30;99.90;;;;;;4904357;29;20214;-86
2022/12/30 01:40:27;;;;;;;75.37;6.77;;;7.40;99.90;;;;;;4906354;29;20200;-86
2022/12/30 01:42:53;;;;;;;71.30;5.70;;;7.40;99.90;;;;;;4905768;29;20253;-86
2022/12/30 01:45:22;;;;;;;72.40;6.93;;;7.40;99.90;;;;;;4903780;29;20222;-86
2022/12/30 01:48:02;;;;;;;76.90;6.28;;;7.30;99.90;;;;;;4904425;29;20182;-86
2022/12/30 01:50:32;;;;;;;72.35;5.35;;;7.20;99.90;;;;;;4905038;29;20557;-86
2022/12/30 01:53:15;;;;;;;71.68;5.63;;;7.10;99.90;;;;;;4904953;29;20574;-86
2022/12/30 01:56:05;;;;;;;69.22;6.05;;;7.00;99.90;;;;;;4903863;29;20169;-86
2022/12/30 01:58:39;;;;;;;69.85;5.25;;;7.00;99.90;;;;;;4903937;29;20204;-86
2022/12/30 02:01:04;;;;;;;71.47;5.95;;;7.00;99.90;;;;;;4906597;29;20181;-86
2022/12/30 02:03:36;;;;;;;69.37;6.33;;;7.00;99.90;;;;;;4910404;29;20165;-86
2022/12/30 02:06:03;;;;;;;73.18;5.65;;;7.10;99.90;;;;;;4907876;29;20759;-86
2022/12/30 02:08:29;;;;;;;68.78;5.75;;;7.00;99.90;;;;;;4909280;29;20578;-86
2022/12/30 02:10:56;;;;;;;80.43;5.28;;;7.00;99.90;;;;;;4909051;29;20185;-86
2022/12/30 02:13:22;;;;;;;70.05;5.75;;;7.10;99.90;;;;;;4907918;29;20181;-86
2022/12/30 02:15:57;;;;;;;76.30;6.27;;;7.10;99.90;;;;;;4907258;29;20638;-86
2022/12/30 02:18:49;;;;;;;74.20;6.50;;;7.10;99.90;;;;;;4908000;29;20853;-86
2022/12/30 02:21:33;;;;;;;68.65;5.75;;;7.10;99.90;;;;;;4907105;29;20260;-86
2022/12/30 02:24:18;;;;;;;74.97;8.23;;;7.00;99.90;;;;;;4907612;29;20166;-86
2022/12/30 02:27:03;;;;;;;70.97;4.93;;;7.10;99.90;;;;;;4906869;29;20170;-86
2022/12/30 02:30:00;;;;;;;71.85;6.68;;;7.00;99.90;;;;;;4907471;29;20197;-86
2022/12/30 02:32:39;;;;;;;71.05;6.80;;;7.00;99.90;;;;;;4908717;29;20154;-86
2022/12/30 02:35:29;;;;;;;81.00;5.40;;;6.90;99.90;;;;;;4909000;29;20610;-87
2022/12/30 02:38:28;;;;;;;73.20;6.68;;;6.90;99.90;;;;;;4908981;29;20255;-86
2022/12/30 02:46:49;;;;;;;74.13;5.78;;;7.00;99.90;;;;;;4908566;29;20166;-86
2022/12/30 02:49:16;;;;;;;77.47;7.07;;;6.90;99.90;;;;;;4906815;29;20166;-86
2022/12/30 02:54:33;;;;;;;71.05;6.38;;;7.00;99.90;;;;;;4908111;29;20677;-86
2022/12/30 02:56:59;;;;;;;69.82;5.68;;;7.00;99.90;;;;;;4907010;29;20228;-86
2022/12/30 03:05:25;;;;;;;71.35;5.93;;;7.00;99.90;;;;;;4908010;29;20649;-86
2022/12/30 03:08:08;;;;;;;71.57;5.75;;;7.00;99.90;;;;;;4906663;29;20162;-86
2022/12/30 03:13:40;;;;;;;77.00;6.20;;;6.90;99.90;;;;;;4906817;29;20189;-86
2022/12/30 03:16:13;;;;;;;70.32;5.90;;;6.80;99.90;;;;;;4908871;29;20170;-86
2022/12/30 03:18:40;;;;;;;74.10;6.55;;;6.70;99.90;;;;;;4907577;29;20539;-86
2022/12/30 03:21:10;;;;;;;71.70;6.43;;;6.60;99.90;;;;;;4906120;29;20217;-86
2022/12/30 03:29:14;;;;;;;72.22;6.32;;;6.80;99.90;;;;;;4907815;29;20174;-86
2022/12/30 03:31:40;;;;;;;72.18;5.95;;;6.80;99.90;;;;;;4907430;29;20504;-86
2022/12/30 03:34:06;;;;;;;75.60;6.40;;;6.80;99.90;;;;;;4907559;29;20174;-86
2022/12/30 03:36:42;;;;;;;72.82;7.30;;;6.80;99.90;;;;;;4906253;29;20440;-86
2022/12/30 03:39:14;;;;;;;72.68;6.32;;;6.80;99.90;;;;;;4906239;29;20174;-86
2022/12/30 03:41:43;;;;;;;76.43;7.18;;;6.80;99.90;;;;;;4906547;29;20570;-86
2022/12/30 03:44:10;;;;;;;78.47;6.07;;;6.80;99.90;;;;;;4907349;29;20182;-86
2022/12/30 03:46:35;;;;;;;73.45;5.65;;;6.70;99.90;;;;;;4908086;29;20162;-86
2022/12/30 03:49:01;;;;;;;75.70;6.23;;;6.80;99.90;;;;;;4907664;29;20245;-86
2022/12/30 03:51:27;;;;;;;71.83;6.40;;;6.70;99.90;;;;;;4906457;29;20422;-86
2022/12/30 03:53:53;;;;;;;71.37;7.40;;;6.50;99.90;;;;;;4906479;29;20177;-86
2022/12/30 03:56:18;;;;;;;71.67;7.50;;;6.30;99.90;;;;;;4907402;29;20471;-86
2022/12/30 03:58:44;;;;;;;73.70;9.47;;;6.20;99.90;;;;;;4907673;29;20204;-86
2022/12/30 04:01:10;;;;;;;74.13;11.97;;;6.20;99.90;;;;;;4906858;29;20214;-86
2022/12/30 04:03:36;;;;;;;75.22;12.02;;;6.30;99.90;;;;;;4906831;29;20170;-87
2022/12/30 04:06:01;;;;;;;74.60;8.97;;;6.20;99.90;;;;;;4906283;29;20180;-86
2022/12/30 04:08:27;;;;;;;72.20;12.67;;;6.10;99.90;;;;;;4905315;29;20174;-86
2022/12/30 04:10:53;;;;;;;72.70;13.67;;;6.00;99.90;;;;;;4905079;29;20221;-86
2022/12/30 04:13:18;;;;;;;71.20;12.10;;;6.00;99.90;;;;;;4906095;29;20207;-86
2022/12/30 04:15:49;;;;;;;76.43;13.47;;;6.10;99.90;;;;;;4904978;29;20205;-86
2022/12/30 04:18:14;;;;;;;75.60;12.85;;;6.10;99.90;;;;;;4905289;29;20866;-86
2022/12/30 04:20:40;;;;;;;78.90;10.60;;;6.10;99.90;;;;;;4904625;29;20190;-86
2022/12/30 04:23:06;;;;;;;73.13;10.80;;;6.00;99.90;;;;;;4903947;29;20196;-86
2022/12/30 04:25:32;;;;;;;74.70;11.10;;;5.90;99.90;;;;;;4905794;29;20411;-86
2022/12/30 04:27:57;;;;;;;74.27;17.07;;;5.80;99.90;;;;;;4906650;29;20177;-86
2022/12/30 04:30:23;;;;;;;77.27;20.57;;;5.80;99.90;;;;;;4906022;29;20198;-86
2022/12/30 04:32:49;;;;;;;95.37;30.30;;;5.70;99.90;;;;;;4905557;29;20221;-86
2022/12/30 04:35:14;;;;;;;80.40;29.17;;;5.60;99.90;;;;;;4906015;29;20537;-86
2022/12/30 04:37:40;;;;;;;82.70;35.27;;;5.60;99.90;;;;;;4904819;29;20644;-86
2022/12/30 04:40:07;;;;;;;78.63;35.55;;;5.60;99.90;;;;;;4906862;29;20182;-87
2022/12/30 04:42:33;;;;;;;87.43;34.03;;;5.40;99.90;;;;;;4906212;29;20720;-86
2022/12/30 04:44:58;;;;;;;85.63;34.03;;;5.40;99.90;;;;;;4906979;29;20197;-86
2022/12/30 04:47:24;;;;;;;82.87;35.90;;;5.50;99.90;;;;;;4906783;29;20173;-86
2022/12/30 04:49:49;;;;;;;80.87;32.50;;;5.70;99.90;;;;;;4906190;29;20257;-87
2022/12/30 04:52:15;;;;;;;77.80;31.63;;;5.70;99.90;;;;;;4907047;29;20626;-86
2022/12/30 04:54:41;;;;;;;80.23;34.43;;;5.60;99.90;;;;;;4905353;29;20189;-86
2022/12/30 04:57:06;;;;;;;76.53;28.83;;;5.70;99.90;;;;;;4906549;29;20570;-86
2022/12/30 04:59:32;;;;;;;74.63;14.13;;;5.70;99.90;;;;;;4905299;29;20198;-86
2022/12/30 05:01:58;;;;;;;79.37;18.40;;;5.70;99.90;;;;;;4906760;29;20178;-87
2022/12/30 05:04:23;;;;;;;75.40;19.53;;;5.60;99.90;;;;;;4905447;29;20188;-86
2022/12/30 05:06:49;;;;;;;84.70;25.17;;;5.60;99.90;;;;;;4905034;29;20177;-86
2022/12/30 05:09:15;;;;;;;77.80;23.43;;;5.60;99.90;;;;;;4904956;29;20174;-86
2022/12/30 05:11:41;;;;;;;71.40;13.17;;;5.50;99.90;;;;;;4906609;29;20212;-86
2022/12/30 05:14:06;;;;;;;78.93;19.73;;;5.60;99.90;;;;;;4906114;29;20784;-86
2022/12/30 05:16:32;;;;;;;76.20;20.60;;;5.50;99.90;;;;;;4905246;29;20182;-86
2022/12/30 05:18:58;;;;;;;76.77;21.97;;;5.40;99.90;;;;;;4905180;29;20542;-86
2022/12/30 05:21:23;;;;;;;72.87;23.77;;;5.50;99.90;;;;;;4905302;29;20201;-86
2022/12/30 05:26:33;;;;;;;76.25;14.13;;;5.60;99.90;;;;;;4906566;29;20537;-86
2022/12/30 05:28:58;;;;;;;71.07;11.73;;;5.50;99.90;;;;;;4905685;29;20170;-86
2022/12/30 05:31:24;;;;;;;73.53;11.67;;;5.50;99.90;;;;;;4905526;29;20185;-86
2022/12/30 05:33:50;;;;;;;76.47;18.07;;;5.50;99.90;;;;;;4905402;29;20638;-86
2022/12/30 05:36:15;;;;;;;74.00;18.57;;;5.50;99.90;;;;;;4905772;29;20182;-87
2022/12/30 05:38:42;;;;;;;75.60;22.77;;;5.50;99.90;;;;;;4906934;29;20707;-86
2022/12/30 05:41:09;;;;;;;81.63;25.20;;;5.50;99.90;;;;;;4906399;29;20185;-87
2022/12/30 05:43:35;;;;;;;75.65;27.45;;;5.40;99.90;;;;;;4906063;29;20222;-86
2022/12/30 05:46:01;;;;;;;74.67;25.90;;;5.40;99.90;;;;;;4906220;29;20186;-86
2022/12/30 05:48:26;;;;;;;79.93;31.80;;;5.40;99.90;;;;;;4905473;29;20178;-86
2022/12/30 05:50:52;;;;;;;83.60;34.20;;;5.30;99.90;;;;;;4905708;29;20198;-86
2022/12/30 05:53:18;;;;;;;78.87;32.67;;;5.30;99.90;;;;;;4906064;29;20166;-86
2022/12/30 05:55:44;;;;;;;82.20;27.63;;;5.30;99.90;;;;;;4904873;29;20177;-86
2022/12/30 05:58:10;;;;;;;85.95;28.58;;;5.30;99.90;;;;;;4904610;29;20229;-87
2022/12/30 06:00:35;;;;;;;83.28;29.92;;;5.30;99.90;;;;;;4905800;29;20192;-87
2022/12/30 06:03:01;;;;;;;76.60;25.53;;;5.40;99.90;;;;;;4905097;29;20205;-86
2022/12/30 06:05:27;;;;;;;75.47;24.83;;;5.40;99.90;;;;;;4905896;29;20174;-87
2022/12/30 06:07:55;;;;;;;77.33;25.90;;;5.40;99.90;;;;;;4906530;29;20188;-87
2022/12/30 06:10:21;;;;;;;77.93;28.00;;;5.30;99.90;;;;;;4907240;29;20437;-87
2022/12/30 06:12:47;;;;;;;81.60;28.27;;;5.40;99.90;;;;;;4907592;29;20165;-87
2022/12/30 06:15:12;;;;;;;79.77;26.67;;;5.30;99.90;;;;;;4907671;29;20170;-86
2022/12/30 06:17:38;;;;;;;82.27;26.27;;;5.30;99.90;;;;;;4907599;29;20688;-86
2022/12/30 06:20:04;;;;;;;82.87;30.80;;;5.30;99.90;;;;;;4907011;29;20673;-86
2022/12/30 06:22:33;;;;;;;75.28;27.70;;;5.40;99.90;;;;;;4907563;29;20241;-87
2022/12/30 06:24:59;;;;;;;80.93;29.13;;;5.40;99.90;;;;;;4906375;29;20166;-87
2022/12/30 06:27:24;;;;;;;80.33;25.63;;;5.40;99.90;;;;;;4906947;29;20216;-86
2022/12/30 06:29:51;;;;;;;80.60;25.70;;;5.40;99.90;;;;;;4907354;29;20197;-87
2022/12/30 06:32:17;;;;;;;77.07;25.35;;;5.40;99.90;;;;;;4907134;29;20165;-86
2022/12/30 06:34:43;;;;;;;83.07;29.40;;;5.50;99.90;;;;;;4907073;29;20170;-86
2022/12/30 06:37:08;;;;;;;77.40;26.60;;;5.50;99.90;;;;;;4906301;29;20205;-87
2022/12/30 06:39:35;;;;;;;81.70;29.87;;;5.60;99.90;;;;;;4905866;29;20205;-86
2022/12/30 06:42:00;;;;;;;80.15;25.88;;;5.60;99.90;;;;;;4907689;29;20170;-86
2022/12/30 06:44:26;;;;;;;74.67;27.40;;;5.60;99.90;;;;;;4906271;29;20174;-87
2022/12/30 06:46:51;;;;;;;77.37;27.53;;;5.60;99.90;;;;;;4907044;29;20210;-86
2022/12/30 06:49:17;;;;;;;81.90;34.03;;;5.60;99.90;;;;;;4910675;29;20166;-86
2022/12/30 06:51:43;;;;;;;75.93;32.17;;;5.60;99.90;;;;;;4910651;29;20166;-87
2022/12/30 06:54:08;;;;;;;78.80;26.83;;;5.60;99.90;;;;;;4908520;29;20542;-86
2022/12/30 06:56:34;;;;;;;78.10;26.73;;;5.50;99.90;;;;;;4908950;29;20264;-86
2022/12/30 06:59:00;;;;;;;76.57;27.07;;;5.60;99.90;;;;;;4908687;29;20174;-86
2022/12/30 07:01:25;;;;;;;79.73;29.10;;;5.60;99.90;;;;;;4910257;29;20281;-86
2022/12/30 07:03:51;;;;;;;79.83;29.77;;;5.60;99.90;;;;;;4908754;29;20174;-87
2022/12/30 07:06:16;;;;;;;78.10;25.73;;;5.60;99.90;;;;;;4910134;29;20177;-86
2022/12/30 07:08:42;;;;;;;72.17;24.20;;;5.60;99.90;;;;;;4908054;29;20237;-87
2022/12/30 07:11:11;;;;;;;76.50;27.17;;;5.60;99.90;;;;;;4908736;29;20264;-86
2022/12/30 07:13:36;;;;;;;73.18;24.17;;;5.70;99.90;;;;;;4908507;29;20199;-86
2022/12/30 07:16:02;;;;;;;77.10;26.97;;;5.70;99.90;;;;;;4907128;29;20170;-86
2022/12/30 07:18:28;;;;;;;75.30;23.73;;;5.70;99.90;;;;;;4906974;29;20212;-86
2022/12/30 07:20:53;;;;;;;78.67;26.53;;;5.70;99.90;;;;;;4905576;29;20280;-86
2022/12/30 07:23:19;;;;;;;80.57;26.53;;;5.70;99.90;;;;;;4907282;29;20170;-86
2022/12/30 07:25:46;;;;;;;76.17;26.63;;;5.70;99.90;;;;;;4905847;29;20170;-86
2022/12/30 07:28:15;;;;;;;75.22;26.27;;;5.70;99.90;;;;;;4906527;29;20550;-86
2022/12/30 07:30:40;;;;;;;73.15;23.48;;;5.80;99.90;;;;;;4904947;29;20200;-86
2022/12/30 07:33:06;;;;;;;79.83;20.70;;;5.80;99.90;;;;;;4903052;29;20177;-86
2022/12/30 07:35:32;;;;;;;73.03;21.23;;;5.90;99.90;;;;;;4904530;29;20422;-86
2022/12/30 07:37:58;;;;;;;81.30;23.67;;;5.90;99.90;;;;;;4905654;29;20205;-86
2022/12/30 07:40:23;;;;;;;79.03;23.60;;;5.90;99.90;;;;;;4906027;29;20193;-86
2022/12/30 07:42:49;;;;;;;73.30;21.70;;;6.00;99.90;;;;;;4905393;29;20926;-86
2022/12/30 07:45:18;;;;;;;77.73;24.70;;;6.00;99.90;;;;;;4905369;29;20173;-87
2022/12/30 07:47:43;;;;;;;76.38;25.73;;;6.00;99.90;;;;;;4907065;29;20601;-87
2022/12/30 07:50:10;;;;;;;75.77;20.53;;;6.00;99.90;;;;;;4906863;29;20194;-86
2022/12/30 07:52:36;;;;;;;79.75;20.60;;;6.10;99.90;;;;;;4905803;29;20174;-85
2022/12/30 07:55:03;;;;;;;73.53;22.02;;;6.10;99.90;;;;;;4906868;29;20181;-86
2022/12/30 07:57:28;;;;;;;74.63;21.00;;;6.10;99.90;;;;;;4906889;29;20198;-87
2022/12/30 07:59:55;;;;;;;75.00;24.47;;;6.10;99.90;;;;;;4907208;29;20190;-86
2022/12/30 08:02:21;;;;;;;73.20;22.38;;;6.10;99.90;;;;;;4905496;29;20470;-87
2022/12/30 08:04:46;;;;;;;73.10;22.00;;;6.10;99.90;;;;;;4908047;29;20154;-86
2022/12/30 08:07:14;;;;;;;75.57;21.80;;;6.10;99.90;;;;;;4906750;29;20980;-87
2022/12/30 08:09:40;;;;;;;74.35;22.23;;;6.10;99.90;;;;;;5169055;23;20570;-85
2022/12/30 08:12:06;;;;;;;74.60;23.30;;;6.20;99.90;;;;;;5011041;23;20222;-85
2022/12/30 08:14:31;;;;;;;74.60;19.10;;;6.30;99.90;;;;;;4904544;29;20221;-85
2022/12/30 08:16:57;;;;;;;70.57;19.97;;;6.40;99.90;;;;;;4902627;29;20854;-85
2022/12/30 08:19:23;;;;;;;74.53;19.50;;;6.60;99.90;;;;;;4905651;29;20550;-86
2022/12/30 08:21:48;;;;;;;80.37;19.60;;;6.60;99.90;;;;;;4907176;29;20162;-86
2022/12/30 08:24:14;;;;;;;73.07;19.97;;;6.70;99.90;;;;;;4900873;29;20654;-86
2022/12/30 08:26:40;;;;;;;71.27;17.30;;;6.80;99.90;;;;;;4901036;29;20638;-86
2022/12/30 08:29:05;;;;;;;74.20;20.53;;;6.80;99.90;;;;;;4900494;29;20644;-86
2022/12/30 08:31:31;;;;;;;74.03;21.87;;;6.90;99.90;;;;;;4900833;29;20213;-86
2022/12/30 08:33:57;;;;;;;71.70;19.73;;;7.00;99.90;;;;;;4899828;29;20181;-86
2022/12/30 08:36:25;;;;;;;74.43;17.97;;;7.00;99.90;;;;;;4899359;29;20442;-86
2022/12/30 08:38:54;;;;;;;70.88;18.65;;;7.10;99.90;;;;;;4899709;29;20201;-86
2022/12/30 08:41:21;;;;;;;73.50;19.38;;;7.20;99.90;;;;;;4899871;29;20189;-86
2022/12/30 08:43:48;;;;;;;71.63;22.15;;;7.20;99.90;;;;;;4898711;29;20178;-86
2022/12/30 08:46:15;;;;;;;75.20;23.70;;;7.30;99.90;;;;;;4899408;29;20171;-86
2022/12/30 08:48:41;;;;;;;73.10;22.63;;;7.40;99.90;;;;;;4900994;29;20154;-86
2022/12/30 08:51:08;;;;;;;79.68;22.92;;;7.40;99.90;;;;;;4899602;29;20196;-86
2022/12/30 08:53:33;;;;;;;73.22;19.25;;;7.40;99.90;;;;;;4900030;29;20181;-86
2022/12/30 08:56:04;;;;;;;67.40;9.03;;;7.50;99.90;;;;;;4898295;29;20174;-86
2022/12/30 08:58:31;;;;;;;76.70;13.25;;;7.60;99.90;;;;;;4899360;29;20190;-86
2022/12/30 09:00:57;;;;;;;69.65;17.45;;;7.60;99.90;;;;;;4899374;29;20194;-86
2022/12/30 09:03:22;;;;;;;72.20;21.00;;;7.50;99.90;;;;;;4899673;29;20626;-86
2022/12/30 09:05:55;;;;;;;74.97;20.43;;;7.60;99.90;;;;;;4899411;29;20190;-86
2022/12/30 09:08:20;;;;;;;77.35;25.30;;;7.60;99.90;;;;;;4899388;29;20186;-87
2022/12/30 09:11:08;;;;;;;77.82;27.23;;;7.70;99.90;;;;;;4899117;29;20253;-86
2022/12/30 09:13:36;;;;;;;78.15;17.40;;;7.80;99.90;;;;;;4899231;29;20162;-87
2022/12/30 09:16:04;;;;;;;72.63;18.90;;;7.80;99.90;;;;;;4897661;29;20177;-86
2022/12/30 09:18:30;;;;;;;77.60;25.40;;;7.90;99.90;;;;;;4897481;29;20204;-87
2022/12/30 09:20:55;;;;;;;73.13;20.30;;;8.00;99.90;;;;;;4899216;29;20185;-86
2022/12/30 09:23:21;;;;;;;74.90;17.40;;;8.00;99.90;;;;;;4898639;29;20174;-87
2022/12/30 09:25:47;;;;;;;71.80;18.97;;;8.00;99.90;;;;;;4899316;29;20253;-86
2022/12/30 09:28:12;;;;;;;71.03;14.70;;;8.10;99.90;;;;;;4898778;29;20166;-86
2022/12/30 09:30:38;;;;;;;72.80;12.40;;;8.20;99.90;;;;;;4898622;29;20221;-86
2022/12/30 09:33:04;;;;;;;76.30;11.53;;;8.30;99.90;;;;;;4897411;29;20328;-86
2022/12/30 09:35:32;;;;;;;73.68;7.85;;;8.30;99.90;;;;;;4898451;29;20445;-86
2022/12/30 09:38:03;;;;;;;69.75;7.55;;;8.40;99.90;;;;;;4898424;29;20206;-87
2022/12/30 09:41:07;;;;;;;72.25;7.75;;;8.30;99.90;;;;;;4897117;29;20274;-87
2022/12/30 09:43:58;;;;;;;68.60;7.45;;;8.40;99.90;;;;;;4898854;29;20161;-87
2022/12/30 09:46:26;;;;;;;73.72;9.73;;;8.30;99.90;;;;;;4898435;29;20158;-87
2022/12/30 09:49:01;;;;;;;70.55;8.13;;;8.30;99.90;;;;;;4898470;29;20169;-87
2022/12/30 09:51:39;;;;;;;70.05;6.18;;;8.40;99.90;;;;;;4899008;29;20166;-86
2022/12/30 09:54:14;;;;;;;72.53;5.50;;;8.40;99.90;;;;;;4898963;29;20164;-87
2022/12/30 09:56:46;;;;;;;68.03;5.97;;;8.40;99.90;;;;;;4907444;29;20168;-86
2022/12/30 09:59:38;;;;;;;72.53;6.35;;;8.40;99.90;;;;;;4898125;29;20174;-87
2022/12/30 10:02:21;;;;;;;74.40;6.85;;;8.30;99.90;;;;;;4898340;29;20158;-87
2022/12/30 10:04:51;;;;;;;70.53;6.07;;;8.30;99.90;;;;;;4898512;29;20189;-87
2022/12/30 10:07:37;;;;;;;65.78;5.25;;;8.30;99.90;;;;;;4898386;29;20241;-87
2022/12/30 10:10:11;;;;;;;67.30;5.53;;;8.30;99.90;;;;;;4898013;29;20272;-87
2022/12/30 10:13:12;;;;;;;68.70;6.00;;;8.30;99.90;;;;;;4896732;29;20244;-87
2022/12/30 10:15:53;;;;;;;70.07;5.75;;;8.30;99.90;;;;;;4898268;29;20529;-87
2022/12/30 10:18:52;;;;;;;66.13;5.50;;;8.40;99.90;;;;;;4898256;29;20209;-87
2022/12/30 10:21:30;;;;;;;70.00;4.90;;;8.40;99.90;;;;;;4897088;29;20539;-87
2022/12/30 10:24:03;;;;;;;67.85;6.78;;;8.40;99.90;;;;;;4902030;29;20158;-87
2022/12/30 10:26:41;;;;;;;71.05;5.18;;;8.40;99.90;;;;;;4901914;29;20225;-87
2022/12/30 10:29:19;;;;;;;72.65;4.97;;;8.50;99.90;;;;;;4902114;29;20166;-87
2022/12/30 10:31:46;;;;;;;65.65;5.20;;;8.60;99.90;;;;;;4900547;29;20169;-87
2022/12/30 10:34:26;;;;;;;70.95;5.45;;;8.60;99.90;;;;;;4900377;29;20645;-87
2022/12/30 10:37:03;;;;;;;66.35;5.18;;;8.60;99.90;;;;;;4901395;29;20158;-87
2022/12/30 10:39:32;;;;;;;67.22;4.60;;;8.60;99.90;;;;;;4900381;29;20673;-87
2022/12/30 10:42:09;;;;;;;66.50;4.63;;;8.60;99.90;;;;;;4901375;29;20173;-87
2022/12/30 10:45:01;;;;;;;65.00;4.68;;;8.60;99.90;;;;;;4901430;29;20154;-86
2022/12/30 10:47:47;;;;;;;68.10;5.50;;;8.70;99.90;;;;;;4901539;29;20163;-86
2022/12/30 10:50:36;;;;;;;66.07;5.03;;;8.70;99.90;;;;;;4893109;29;20303;-86
2022/12/30 10:53:04;;;;;;;74.90;4.55;;;8.80;99.90;;;;;;4901248;29;20209;-87
2022/12/30 10:55:34;;;;;;;69.30;6.05;;;8.80;99.90;;;;;;4901781;29;20261;-87
2022/12/30 10:58:15;;;;;;;65.57;4.28;;;8.80;99.90;;;;;;4899840;29;20198;-87
2022/12/30 11:00:42;;;;;;;68.43;4.38;;;8.80;99.90;;;;;;4900107;29;20194;-86
2022/12/30 11:03:30;;;;;;;68.07;4.70;;;8.80;99.90;;;;;;4908775;29;20158;-86
2022/12/30 11:05:56;;;;;;;67.95;5.40;;;8.80;99.90;;;;;;4904105;29;20225;-86
2022/12/30 11:08:28;;;;;;;69.20;5.22;;;8.90;99.90;;;;;;4899611;29;20201;-87
2022/12/30 11:11:00;;;;;;;67.35;4.78;;;8.90;99.90;;;;;;4899626;29;20219;-87
2022/12/30 11:16:11;;;;;;;67.43;5.22;;;8.90;99.90;;;;;;4901395;29;20180;-87
2022/12/30 11:18:37;;;;;;;69.55;5.00;;;8.90;99.90;;;;;;4900729;29;20565;-87
2022/12/30 11:21:06;;;;;;;68.30;4.93;;;8.90;99.90;;;;;;4900628;29;20189;-87
2022/12/30 11:23:35;;;;;;;67.03;5.22;;;8.80;99.90;;;;;;4900941;29;20747;-87
2022/12/30 11:26:04;;;;;;;69.00;5.80;;;8.80;99.90;;;;;;4899513;29;20594;-87
2022/12/30 11:28:42;;;;;;;68.53;5.95;;;8.80;99.90;;;;;;4900653;29;20178;-87
2022/12/30 11:31:13;;;;;;;66.88;5.15;;;8.80;99.90;;;;;;4899438;29;20202;-87
2022/12/30 11:33:48;;;;;;;67.75;5.25;;;8.90;99.90;;;;;;4899649;29;20150;-87
2022/12/30 11:36:26;;;;;;;67.60;5.13;;;8.90;99.90;;;;;;4899281;29;20649;-87
2022/12/30 11:38:52;;;;;;;71.53;5.80;;;8.80;99.90;;;;;;4900719;29;20355;-87
2022/12/30 11:41:20;;;;;;;67.60;4.70;;;8.80;99.90;;;;;;4899192;29;20228;-88
2022/12/30 11:43:50;;;;;;;69.00;5.88;;;8.90;99.90;;;;;;4899044;29;20509;-88
2022/12/30 11:46:22;;;;;;;65.93;4.60;;;8.90;99.90;;;;;;4900280;29;20173;-88
2022/12/30 11:48:56;;;;;;;67.35;5.55;;;8.90;99.90;;;;;;4900562;29;20162;-88
2022/12/30 11:51:42;;;;;;;67.22;5.10;;;8.90;99.90;;;;;;4899324;29;20201;-88
2022/12/30 11:54:10;;;;;;;68.50;5.78;;;8.90;99.90;;;;;;4898993;29;20253;-88
2022/12/30 11:57:03;;;;;;;70.03;5.35;;;8.90;99.90;;;;;;4900407;29;20177;-88
2022/12/30 11:59:35;;;;;;;69.50;5.72;;;8.90;99.90;;;;;;4899937;29;20190;-87
2022/12/30 12:02:14;;;;;;;67.80;5.35;;;8.90;99.90;;;;;;4900091;29;20170;-88
2022/12/30 12:04:41;;;;;;;67.22;4.65;;;9.00;99.90;;;;;;4900054;29;20151;-88
2022/12/30 12:07:16;;;;;;;69.78;5.80;;;8.90;99.90;;;;;;4900001;29;20511;-88
2022/12/30 12:10:02;;;;;;;68.75;5.30;;;8.90;99.90;;;;;;4898642;29;20189;-88
2022/12/30 12:12:45;;;;;;;67.95;4.80;;;8.90;99.90;;;;;;4899851;29;20181;-88
2022/12/30 12:15:40;;;;;;;67.90;5.55;;;8.90;99.90;;;;;;4900068;29;20290;-88
2022/12/30 12:18:26;;;;;;;65.68;4.53;;;8.90;99.90;;;;;;4899699;29;20249;-89
2022/12/30 12:20:59;;;;;;;70.78;5.25;;;8.90;99.90;;;;;;4899520;29;20185;-88
2022/12/30 12:23:45;;;;;;;66.65;4.72;;;8.90;99.90;;;;;;4899663;29;20571;-88
2022/12/30 12:26:23;;;;;;;66.25;4.75;;;9.00;99.90;;;;;;4878947;29;20218;-88
2022/12/30 12:28:52;;;;;;;66.90;5.60;;;9.00;99.90;;;;;;4899470;29;20165;-88
2022/12/30 12:31:40;;;;;;;66.32;4.85;;;9.00;99.90;;;;;;4898209;29;20194;-88
2022/12/30 12:34:34;;;;;;;65.40;4.20;;;9.10;99.90;;;;;;4899449;29;20558;-88
2022/12/30 12:37:39;;;;;;;66.15;4.82;;;9.10;99.90;;;;;;4897110;29;20185;-88
2022/12/30 12:40:30;;;;;;;71.57;5.45;;;9.10;99.90;;;;;;4877208;29;20236;-88
2022/12/30 12:43:17;;;;;;;66.13;4.80;;;9.00;99.90;;;;;;4897950;29;20174;-88
2022/12/30 12:46:08;;;;;;;68.10;4.90;;;9.00;99.90;;;;;;4898802;29;20162;-88
2022/12/30 12:49:18;;;;;;;70.88;4.95;;;9.00;99.90;;;;;;4899220;29;20682;-88
2022/12/30 12:52:31;;;;;;;72.07;5.25;;;9.10;99.90;;;;;;4899076;29;20162;-88
2022/12/30 12:55:15;;;;;;;67.45;5.50;;;9.00;99.90;;;;;;4887646;29;20232;-88
2022/12/30 12:57:57;;;;;;;67.00;4.80;;;9.00;99.90;;;;;;4898882;29;20732;-88
2022/12/30 13:00:26;;;;;;;69.10;6.57;;;9.00;99.90;;;;;;4898953;29;20192;-88
2022/12/30 13:03:22;;;;;;;68.13;5.05;;;9.00;99.90;;;;;;4899505;29;20170;-88
2022/12/30 13:06:03;;;;;;;68.47;6.30;;;9.00;99.90;;;;;;4897686;29;20181;-88
2022/12/30 13:08:55;;;;;;;72.78;5.55;;;9.00;99.90;;;;;;4899191;29;20611;-88
2022/12/30 13:11:33;;;;;;;69.07;6.07;;;9.00;99.90;;;;;;4898868;29;20213;-88
2022/12/30 13:14:05;;;;;;;96.43;7.00;;;9.10;99.90;;;;;;4898731;29;20177;-88
2022/12/30 13:16:41;;;;;;;67.68;5.55;;;9.10;99.90;;;;;;4898986;29;20170;-87
2022/12/30 13:19:16;;;;;;;67.60;7.85;;;9.10;99.90;;;;;;4897388;29;20605;-88
2022/12/30 13:21:48;;;;;;;65.25;5.72;;;9.10;99.90;;;;;;4898660;29;20253;-88
2022/12/30 13:24:28;;;;;;;66.55;5.35;;;9.10;99.90;;;;;;4898132;29;20171;-88
2022/12/30 13:26:55;;;;;;;65.38;4.70;;;9.20;99.90;;;;;;4897393;29;20237;-88
2022/12/30 13:29:21;;;;;;;66.00;6.82;;;9.20;99.90;;;;;;4897140;29;20185;-88
2022/12/30 13:32:01;;;;;;;66.05;5.75;;;9.20;99.90;;;;;;4898425;29;20181;-88
2022/12/30 13:34:41;;;;;;;65.53;5.10;;;9.20;99.90;;;;;;4898922;29;20169;-88
2022/12/30 13:37:37;;;;;;;65.20;5.28;;;9.20;99.90;;;;;;4898359;29;20676;-88
2022/12/30 13:40:10;;;;;;;66.75;5.03;;;9.20;99.90;;;;;;4898264;29;20226;-89
2022/12/30 13:42:41;;;;;;;70.85;7.85;;;9.20;99.90;;;;;;4897070;29;20162;-90
2022/12/30 13:45:29;;;;;;;69.57;6.78;;;9.20;99.90;;;;;;4898776;29;20619;-89
2022/12/30 13:48:28;;;;;;;70.07;11.63;;;9.10;99.90;;;;;;4896932;29;20184;-89
2022/12/30 13:51:21;;;;;;;69.97;6.55;;;9.00;99.90;;;;;;4897322;29;20209;-89
2022/12/30 13:53:56;;;;;;;67.45;7.68;;;8.90;99.90;;;;;;4895892;29;20186;-89
2022/12/30 13:56:40;;;;;;;69.95;11.88;;;8.90;99.90;;;;;;4896275;29;20173;-89
2022/12/30 13:59:28;;;;;;;68.15;10.50;;;8.80;99.90;;;;;;4898215;29;20574;-88
2022/12/30 14:02:18;;;;;;;69.25;12.88;;;8.80;99.90;;;;;;4897664;29;20162;-88